Latest Weather Observations for Centre Island

IDD60801

Issued at 11:31 pm CST Thursday 5 May 2016 (issued every 30 minutes, with the page automatically refreshed every 10 minutes)

About weather observations | Map of weather stations | Latest weather observations for NT | Other Formats
Station Details ID: 014703 Name: CENTRE ISLAND Lat: -15.74 Lon: 136.82 Height: 12.2 m
Data from the previous 72 hours. | See also: Recent months at Centre Island
Date/Time
CST
Temp
°C
App
Temp
°C
Dew
Point
Rel
Hum
%
Delta-T
°C
Wind Press
QNH
hPa
Press
MSL
hPa
Rain
since 9 am
mm
Dir
 
Spd
km/h
Gust
km/h
Spd
kts
Gust
kts
05/11:30pm 28.9 32.3 25.3 81 2.5 ENE 17 22 9 12 1011.5 1011.5 0.0
05/11:00pm 29.0 32.5 25.4 81 2.5 NE 17 22 9 12 1011.6 1011.6 0.0
05/10:30pm 29.0 32.0 25.2 80 2.7 NE 19 24 10 13 1011.9 1011.9 0.0
05/10:00pm 29.1 31.9 25.3 80 2.7 NE 20 26 11 14 1012.1 1012.1 0.0
05/09:30pm 29.0 31.7 25.0 79 2.8 NE 20 26 11 14 1012.2 1012.2 0.0
05/09:00pm 29.1 31.4 25.1 79 2.8 NE 22 28 12 15 1012.2 1012.2 0.0
05/08:30pm 29.1 31.7 24.9 78 2.9 NE 20 24 11 13 1011.9 1011.9 0.0
05/08:00pm 29.1 31.9 24.9 78 2.9 NE 19 26 10 14 1011.7 1011.7 0.0
05/07:30pm 29.2 31.5 24.5 76 3.3 ENE 20 24 11 13 1011.4 1011.4 0.0
05/07:00pm 29.4 31.5 24.7 76 3.3 ENE 22 26 12 14 1011.1 1011.1 0.0
05/06:30pm 29.6 31.6 24.5 74 3.6 ENE 22 26 12 14 1010.7 1010.7 0.0
05/06:00pm 29.9 32.2 24.5 73 3.8 ENE 20 26 11 14 1010.5 1010.5 0.0
05/05:30pm 30.5 32.5 23.9 68 4.6 E 20 26 11 14 1010.2 1010.2 0.0
05/05:00pm 31.2 33.3 24.1 66 4.9 E 20 24 11 13 1010.2 1010.2 0.0
05/04:30pm 31.7 33.9 24.0 63 5.4 E 19 22 10 12 1009.9 1009.9 0.0
05/04:00pm 32.2 34.7 24.8 65 5.2 E 20 26 11 14 1009.8 1009.8 0.0
05/03:30pm 32.5 34.3 24.3 62 5.7 E 22 26 12 14 1009.9 1009.9 0.0
05/03:00pm 32.6 34.5 24.4 62 5.8 E 22 28 12 15 1010.1 1010.1 0.0
05/02:30pm 32.3 34.6 25.1 65 5.1 ESE 22 24 12 13 1010.3 1010.3 0.0
05/02:00pm 32.2 33.8 24.5 64 5.4 ESE 24 28 13 15 1010.6 1010.6 0.0
05/01:30pm 32.1 33.5 24.2 63 5.5 ESE 24 28 13 15 1010.9 1010.9 0.0
05/01:00pm 32.1 33.3 23.9 62 5.7 ESE 24 28 13 15 1011.4 1011.4 0.0
05/12:30pm 31.7 32.1 23.8 63 5.5 ESE 28 32 15 17 1011.7 1011.7 0.0
05/12:00pm 31.5 31.3 22.8 60 6.0 ESE 28 32 15 17 1012.2 1012.2 0.0
05/11:30am 31.4 31.0 22.4 59 6.1 ESE 28 32 15 17 1012.7 1012.7 0.0
05/11:00am 31.3 31.2 22.9 61 5.8 ESE 28 30 15 16 1013.2 1013.2 0.0
05/10:30am 30.8 29.5 22.1 59 5.9 ESE 32 37 17 20 1013.5 1013.5 0.0
05/10:00am 30.3 28.8 21.7 60 5.8 ESE 32 35 17 19 1013.8 1013.8 0.0
05/09:30am 29.6 28.0 20.7 58 5.9 ESE 30 35 16 19 1013.8 1013.8 0.0
05/09:00am 29.2 27.3 20.1 58 6.0 ESE 30 33 16 18 1013.5 1013.5 0.0
05/08:30am 28.9 26.6 20.1 59 5.8 SE 32 35 17 19 1013.3 1013.3 0.0
05/08:00am 28.5 25.8 19.2 57 6.0 SE 32 37 17 20 1013.3 1013.3 0.0
05/07:30am 28.0 25.6 20.0 61 5.2 SE 32 37 17 20 1013.0 1013.0 0.0
05/07:00am 27.7 25.9 20.3 64 4.9 SE 30 33 16 18 1012.5 1012.5 0.0
05/06:30am 27.6 27.2 21.6 70 4.0 SE 26 30 14 16 1012.4 1012.4 0.0
05/06:00am 27.8 27.1 21.8 70 4.0 SE 28 32 15 17 1012.0 1012.0 0.0
05/05:30am 27.8 28.1 22.3 72 3.7 SE 24 28 13 15 1011.9 1011.9 0.0
05/05:00am 27.4 29.0 23.8 81 2.5 SE 22 26 12 14 1012.1 1012.1 0.0
05/04:30am 27.1 28.3 23.8 82 2.3 SSE 24 28 13 15 1012.0 1012.0 0.0
05/04:00am 27.1 28.2 23.6 81 2.4 SSE 24 28 13 15 1011.9 1011.9 0.0
05/03:30am 27.4 29.5 24.1 82 2.3 S 20 24 11 13 1011.8 1011.8 0.0
05/03:00am 27.6 30.8 24.4 83 2.2 S 15 20 8 11 1011.7 1011.7 0.0
05/02:30am 28.1 31.6 24.9 83 2.2 S 15 20 8 11 1011.8 1011.8 0.0
05/02:00am 28.1 32.5 24.5 81 2.5 ESE 9 11 5 6 1011.9 1011.9 0.0
05/01:30am 28.3 32.1 24.7 81 2.5 E 13 15 7 8 1011.9 1011.9 0.0
05/01:00am 28.4 32.1 24.6 80 2.6 ENE 13 17 7 9 1012.1 1012.1 0.0
05/12:30am 28.6 32.3 24.6 79 2.8 ENE 13 17 7 9 1012.1 1012.1 0.0
05/12:00am 28.8 32.3 24.8 79 2.8 ENE 15 17 8 9 1012.3 1012.3 0.0
 
Date/Time
CST
Temp
°C
App
Temp
°C
Dew
Point
Rel
Hum
%
Delta-T
°C
Wind Press
QNH
hPa
Press
MSL
hPa
Rain
since 9 am
mm
Dir
 
Spd
km/h
Gust
km/h
Spd
kts
Gust
kts
04/11:30pm 28.9 32.2 25.1 80 2.7 NE 17 20 9 11 1012.4 1012.4 0.0
04/11:00pm 28.8 31.4 24.6 78 2.9 NE 19 22 10 12 1012.6 1012.6 0.0
04/10:30pm 28.8 31.8 24.6 78 2.9 NE 17 20 9 11 1012.5 1012.5 0.0
04/10:00pm 28.8 31.1 24.4 77 3.1 NE 20 24 11 13 1012.5 1012.5 0.0
04/09:30pm 28.8 30.5 24.1 76 3.3 NE 22 28 12 15 1012.6 1012.6 0.0
04/09:00pm 28.8 30.9 24.1 76 3.3 ENE 20 26 11 14 1012.6 1012.6 0.0
04/08:30pm 28.8 30.7 23.7 74 3.5 ENE 20 26 11 14 1012.3 1012.3 0.0
04/08:00pm 28.9 30.8 23.8 74 3.5 ENE 20 24 11 13 1012.0 1012.0 0.0
04/07:30pm 28.9 30.5 23.3 72 3.8 ENE 20 26 11 14 1011.8 1011.8 0.0
04/07:00pm 29.2 30.0 23.2 70 4.1 ENE 24 30 13 16 1011.5 1011.5 0.0
04/06:30pm 29.5 29.9 22.5 66 4.8 E 24 28 13 15 1011.4 1011.4 0.0
04/06:00pm 29.8 30.1 22.3 64 5.1 E 24 32 13 17 1011.1 1011.1 0.0
04/05:30pm 30.4 30.6 22.0 60 5.7 E 24 28 13 15 1010.8 1010.8 0.0
04/05:00pm 30.8 30.8 22.4 61 5.7 E 26 30 14 16 1010.5 1010.5 0.0
04/04:30pm 31.1 31.1 23.0 62 5.6 ESE 28 33 15 18 1010.2 1010.2 0.0
04/04:00pm 31.2 31.0 22.8 61 5.8 ESE 28 33 15 18 1010.1 1010.1 0.0
04/03:30pm 31.5 31.0 22.8 60 6.0 ESE 30 35 16 19 1010.3 1010.3 0.0
04/03:00pm 31.8 31.4 23.1 60 6.0 ESE 30 35 16 19 1010.5 1010.5 0.0
04/02:30pm 32.0 31.8 22.7 58 6.4 ESE 28 33 15 18 1010.8 1010.8 0.0
04/02:00pm 32.2 31.6 22.6 57 6.6 ESE 30 33 16 18 1011.0 1011.0 0.0
04/01:30pm 32.3 31.7 22.7 57 6.6 ESE 30 35 16 19 1011.3 1011.3 0.0
04/01:00pm 32.2 31.3 21.4 53 7.3 ESE 28 35 15 19 1011.7 1011.7 0.0
04/12:30pm 32.3 31.1 21.5 53 7.3 ESE 30 35 16 19 1012.1 1012.1 0.0
04/12:00pm 32.3 30.9 21.2 52 7.5 ESE 30 35 16 19 1012.7 1012.7 0.0
04/11:30am 32.0 30.5 20.9 52 7.4 ESE 30 35 16 19 1013.3 1013.3 0.0
04/11:00am 32.1 30.4 21.3 53 7.3 ESE 32 35 17 19 1013.6 1013.6 0.0
04/10:30am 31.6 30.1 20.2 50 7.6 ESE 28 35 15 19 1013.9 1013.9 0.0
04/10:00am 31.1 30.0 21.0 55 6.8 ESE 28 33 15 18 1013.6 1013.6 0.0
04/09:30am 30.3 29.1 20.8 56 6.3 SE 28 33 15 18 1013.9 1013.9 0.0
04/09:00am 29.3 29.5 21.3 62 5.3 SSE 22 26 12 14 1013.7 1013.7 0.0
04/08:30am 29.9 28.4 21.0 59 5.9 SE 30 35 16 19 1013.5 1013.5 0.0
04/08:00am 29.2 27.8 21.2 62 5.3 SSE 30 35 16 19 1013.2 1013.2 0.0
04/07:30am 28.9 29.7 21.7 65 4.8 ESE 20 26 11 14 1012.8 1012.8 0.0
04/07:00am 28.3 29.1 21.8 68 4.4 SE 20 24 11 13 1012.5 1012.5 0.0
04/06:30am 27.9 28.4 22.6 73 3.6 SE 24 28 13 15 1012.1 1012.1 0.0
04/06:00am 27.8 28.8 22.1 71 3.8 SE 20 24 11 13 1011.7 1011.7 0.0
04/05:30am 28.0 29.5 22.7 73 3.6 SE 19 30 10 16 1011.6 1011.6 0.0
04/05:00am 27.8 28.0 22.1 71 3.8 SSE 24 28 13 15 1011.5 1011.5 0.0
04/04:30am 28.0 27.7 21.1 66 4.6 SSE 24 28 13 15 1011.4 1011.4 0.0
04/04:00am 28.4 29.4 21.7 67 4.5 SSE 19 22 10 12 1011.6 1011.6 0.0
04/03:30am 28.1 29.0 20.9 65 4.8 S 17 19 9 10 1011.6 1011.6 0.0
04/03:00am 28.3 29.5 22.5 71 3.9 SSW 20 24 11 13 1011.9 1011.9 0.0
04/02:30am 27.8 29.9 22.5 73 3.6 SSW 15 20 8 11 1012.0 1012.0 0.0
04/02:00am 27.7 29.7 22.9 75 3.3 S 17 22 9 12 1012.2 1012.2 0.0
04/01:30am 28.0 30.4 22.9 74 3.5 S 15 22 8 12 1012.4 1012.4 0.0
04/01:00am 28.2 29.7 22.7 72 3.7 SSW 19 24 10 13 1012.7 1012.7 0.0
04/12:30am 28.8 32.4 24.4 77 3.1 S 13 15 7 8 1012.9 1012.9 0.0
04/12:00am 28.5 31.8 23.9 76 3.2 S 13 15 7 8 1013.1 1013.1 0.0
 
Date/Time
CST
Temp
°C
App
Temp
°C
Dew
Point
Rel
Hum
%
Delta-T
°C
Wind Press
QNH
hPa
Press
MSL
hPa
Rain
since 9 am
mm
Dir
 
Spd
km/h
Gust
km/h
Spd
kts
Gust
kts
03/11:30pm 28.3 31.2 23.9 77 3.0 SSE 15 19 8 10 1013.0 1013.0 0.0
03/11:00pm 28.5 30.9 23.6 75 3.4 S 17 24 9 13 1013.3 1013.3 0.0
03/10:30pm 28.7 29.4 23.6 74 3.5 SSE 26 30 14 16 1013.4 1013.4 0.0
03/10:00pm 29.9 32.8 24.5 73 3.8 SE 17 17 9 9 1013.7 1013.7 0.0
03/09:30pm 29.9 33.4 23.6 69 4.3 NE 11 15 6 8 1013.7 1013.7 0.0
03/09:00pm 29.8 33.0 23.0 67 4.7 NNE 11 17 6 9 1013.2 1013.2 0.0
03/08:30pm 29.9 32.4 23.1 67 4.7 NNE 15 19 8 10 1012.8 1012.8 0.0
03/08:00pm 30.0 32.4 22.9 65 4.9 NE 15 19 8 10 1012.5 1012.5 0.0
03/07:30pm 30.1 32.3 23.3 67 4.7 NNE 17 22 9 12 1012.0 1012.0 0.0
03/07:00pm 30.0 32.9 23.9 70 4.2 NNE 15 20 8 11 1011.4 1011.4 0.0
03/06:30pm 30.2 32.8 23.9 69 4.4 NNE 17 22 9 12 1011.2 1011.2 0.0
03/06:00pm 30.4 32.9 23.8 68 4.6 NNE 17 22 9 12 1010.9 1010.9 0.0
03/05:30pm 30.9 32.7 23.3 64 5.2 NNE 19 22 10 12 1010.5 1010.5 0.0
03/05:00pm 32.1 34.8 22.8 58 6.4 NNE 13 17 7 9 1010.2 1010.2 0.0
03/04:30pm 32.5 35.2 23.4 58 6.3 NNE 15 20 8 11 1009.9 1009.9 0.0
03/04:00pm 32.6 35.1 23.8 59 6.1 NE 17 20 9 11 1009.8 1009.8 0.0
03/03:30pm 32.4 35.7 23.9 61 5.9 NE 13 19 7 10 1009.9 1009.9 0.0
03/03:00pm 32.8 36.8 25.1 64 5.5 NE 13 19 7 10 1010.2 1010.2 0.0
03/02:30pm 33.6 36.5 23.9 57 6.8 NE 15 20 8 11 1010.4 1010.4 0.0
03/02:00pm 34.1 36.7 21.9 49 8.3 NNE 11 13 6 7 1010.8 1010.8 0.0
03/01:30pm 34.4 37.9 22.1 48 8.4 NNE 7 11 4 6 1011.2 1011.2 0.0
03/01:00pm 33.4 37.2 22.8 53 7.3 ENE 7 11 4 6 1011.7 1011.7 0.0
03/12:30pm 33.0 37.3 23.6 57 6.5 E 7 11 4 6 1012.1 1012.1 0.0
03/12:00pm 32.4 36.0 23.1 58 6.4 NE 9 11 5 6 1012.6 1012.6 0.0
03/11:30am 31.7 35.9 23.5 62 5.7 ESE 7 11 4 6 1013.0 1013.0 0.0
03/11:00am 31.5 35.8 23.6 63 5.5 SSE 7 9 4 5 1013.5 1013.5 0.0
03/10:30am 31.6 35.9 24.2 65 5.2 S 9 13 5 7 1014.0 1014.0 0.0
03/10:00am 31.4 34.7 24.5 67 4.8 S 15 17 8 9 1014.2 1014.2 0.0
03/09:30am 30.3 33.5 24.9 73 3.8 S 17 20 9 11 1014.1 1014.1 0.0
03/09:00am 29.6 32.3 24.7 75 3.4 S 19 24 10 13 1013.7 1013.7 0.0
03/08:30am 29.0 31.7 25.0 79 2.8 S 20 26 11 14 1013.5 1013.5 0.0
03/08:00am 28.4 31.4 25.2 83 2.2 S 19 22 10 12 1013.3 1013.3 0.0
03/07:30am 28.0 31.0 25.2 85 2.0 S 19 22 10 12 1013.1 1013.1 0.0
03/07:00am 27.7 30.0 25.7 89 1.4 S 24 30 13 16 1012.9 1012.9 0.0
03/06:30am 27.5 30.6 25.7 90 1.3 S 20 24 11 13 1012.5 1012.5 0.0
03/06:00am 27.6 30.6 25.6 89 1.4 S 20 26 11 14 1012.3 1012.3 0.0
03/05:30am 27.0 33.6 25.2 90 1.3 CALM 0 0 0 0 1011.9 1011.9 0.0
03/05:00am 26.8 33.3 25.0 90 1.3 CALM 0 0 0 0 1011.7 1011.7 0.0
03/04:30am 26.8 33.1 24.8 89 1.4 CALM 0 0 0 0 1011.4 1011.4 0.0
03/04:00am 26.9 32.8 24.7 88 1.5 NNW 2 6 1 3 1011.4 1011.4 0.0
03/03:30am 27.1 32.2 24.7 87 1.7 NNW 6 7 3 4 1011.4 1011.4 0.0
03/03:00am 27.3 32.1 25.1 88 1.5 NNW 9 11 5 6 1011.0 1011.0 0.0
03/02:30am 27.2 31.9 25.0 88 1.5 NW 9 9 5 5 1011.0 1011.0 0.0
03/02:00am 27.5 32.7 25.1 87 1.7 NW 7 7 4 4 1011.6 1011.6 0.0
03/01:30am 27.6 32.7 25.0 86 1.8 NW 7 9 4 5 1011.8 1011.8 0.0
03/01:00am 27.9 33.0 24.9 84 2.1 NNW 7 9 4 5 1011.9 1011.9 0.0
03/12:30am 28.7 33.5 25.1 81 2.5 N 9 15 5 8 1012.4 1012.4 0.0
03/12:00am 29.0 33.5 25.2 80 2.7 NNE 11 15 6 8 1012.5 1012.5 0.0

Other Formats:

Comma delimited format used in spreadsheet applications
http://www.bom.gov.au/fwo/IDD60801/IDD60801.94248.axf

JavaScript Object Notation format (JSON) in row-major order
http://www.bom.gov.au/fwo/IDD60801/IDD60801.94248.json